sensor_id;sensor_type;location;lat;lon;timestamp;pressure;altitude;pressure_sealevel;temperature;humidity
43450;BME280;29041;42.266;23.110;2024-03-02T00:02:40;95203.81;;;7.10;100.00
43450;BME280;29041;42.266;23.110;2024-03-02T00:05:27;95219.34;;;7.69;100.00
43450;BME280;29041;42.266;23.110;2024-03-02T00:08:22;95215.41;;;7.67;100.00
43450;BME280;29041;42.266;23.110;2024-03-02T00:11:09;95232.50;;;7.92;100.00
43450;BME280;29041;42.266;23.110;2024-03-02T00:13:59;95223.13;;;7.59;100.00
43450;BME280;29041;42.266;23.110;2024-03-02T00:16:47;95214.78;;;7.35;100.00
43450;BME280;29041;42.266;23.110;2024-03-02T00:19:38;95222.03;;;7.52;100.00
43450;BME280;29041;42.266;23.110;2024-03-02T00:22:26;95219.19;;;7.66;100.00
43450;BME280;29041;42.266;23.110;2024-03-02T00:25:15;95227.38;;;7.52;100.00
43450;BME280;29041;42.266;23.110;2024-03-02T00:28:03;95226.56;;;7.25;100.00
43450;BME280;29041;42.266;23.110;2024-03-02T00:30:58;95207.22;;;6.93;100.00
43450;BME280;29041;42.266;23.110;2024-03-02T00:33:46;95220.06;;;6.82;100.00
43450;BME280;29041;42.266;23.110;2024-03-02T00:36:33;95211.38;;;6.59;100.00
43450;BME280;29041;42.266;23.110;2024-03-02T00:39:21;95206.66;;;6.56;100.00
43450;BME280;29041;42.266;23.110;2024-03-02T00:42:10;95207.81;;;6.72;100.00
43450;BME280;29041;42.266;23.110;2024-03-02T00:44:58;95202.63;;;6.58;100.00
43450;BME280;29041;42.266;23.110;2024-03-02T00:47:45;95208.06;;;7.11;100.00
43450;BME280;29041;42.266;23.110;2024-03-02T00:50:34;95204.13;;;7.26;100.00
43450;BME280;29041;42.266;23.110;2024-03-02T00:53:23;95205.38;;;7.20;100.00
43450;BME280;29041;42.266;23.110;2024-03-02T00:56:11;95198.91;;;6.94;100.00
43450;BME280;29041;42.266;23.110;2024-03-02T00:59:00;95197.00;;;6.77;100.00
43450;BME280;29041;42.266;23.110;2024-03-02T01:01:47;95206.16;;;7.20;100.00
43450;BME280;29041;42.266;23.110;2024-03-02T01:04:35;95204.72;;;6.88;100.00
43450;BME280;29041;42.266;23.110;2024-03-02T01:07:22;95214.28;;;6.80;100.00
43450;BME280;29041;42.266;23.110;2024-03-02T01:10:09;95195.22;;;6.64;100.00
43450;BME280;29041;42.266;23.110;2024-03-02T01:12:58;95195.09;;;6.69;100.00
43450;BME280;29041;42.266;23.110;2024-03-02T01:15:46;95202.69;;;6.85;100.00
43450;BME280;29041;42.266;23.110;2024-03-02T01:18:33;95189.13;;;6.72;100.00
43450;BME280;29041;42.266;23.110;2024-03-02T01:21:21;95191.03;;;6.89;100.00
43450;BME280;29041;42.266;23.110;2024-03-02T01:24:08;95174.59;;;6.87;100.00
43450;BME280;29041;42.266;23.110;2024-03-02T01:26:59;95184.63;;;6.90;100.00
43450;BME280;29041;42.266;23.110;2024-03-02T01:29:46;95185.25;;;6.96;100.00
43450;BME280;29041;42.266;23.110;2024-03-02T01:32:35;95189.69;;;7.27;100.00
43450;BME280;29041;42.266;23.110;2024-03-02T01:35:24;95181.81;;;7.04;100.00
43450;BME280;29041;42.266;23.110;2024-03-02T01:38:12;95146.72;;;6.53;100.00
43450;BME280;29041;42.266;23.110;2024-03-02T01:41:00;95168.59;;;6.81;100.00
43450;BME280;29041;42.266;23.110;2024-03-02T01:43:48;95165.16;;;7.25;100.00
43450;BME280;29041;42.266;23.110;2024-03-02T01:46:35;95166.91;;;7.03;100.00
43450;BME280;29041;42.266;23.110;2024-03-02T01:49:26;95161.06;;;7.01;100.00
43450;BME280;29041;42.266;23.110;2024-03-02T01:52:20;95150.84;;;6.86;100.00
43450;BME280;29041;42.266;23.110;2024-03-02T01:55:07;95160.59;;;6.73;100.00
43450;BME280;29041;42.266;23.110;2024-03-02T01:57:56;95154.28;;;6.69;100.00
43450;BME280;29041;42.266;23.110;2024-03-02T02:00:43;95167.66;;;6.77;100.00
43450;BME280;29041;42.266;23.110;2024-03-02T02:03:31;95164.03;;;6.64;100.00
43450;BME280;29041;42.266;23.110;2024-03-02T02:06:19;95169.41;;;6.91;100.00
43450;BME280;29041;42.266;23.110;2024-03-02T02:09:07;95179.22;;;6.64;100.00
43450;BME280;29041;42.266;23.110;2024-03-02T02:11:54;95183.00;;;6.63;100.00
43450;BME280;29041;42.266;23.110;2024-03-02T02:14:47;95152.38;;;6.60;100.00
43450;BME280;29041;42.266;23.110;2024-03-02T02:17:36;95168.28;;;6.74;100.00
43450;BME280;29041;42.266;23.110;2024-03-02T02:20:23;95159.63;;;6.69;100.00
43450;BME280;29041;42.266;23.110;2024-03-02T02:23:12;95173.31;;;6.85;100.00
43450;BME280;29041;42.266;23.110;2024-03-02T02:25:59;95174.91;;;7.21;100.00
43450;BME280;29041;42.266;23.110;2024-03-02T02:28:48;95172.38;;;6.80;100.00
43450;BME280;29041;42.266;23.110;2024-03-02T02:31:39;95173.91;;;6.64;100.00
43450;BME280;29041;42.266;23.110;2024-03-02T02:34:26;95160.44;;;6.69;100.00
43450;BME280;29041;42.266;23.110;2024-03-02T02:37:13;95170.88;;;6.48;100.00
43450;BME280;29041;42.266;23.110;2024-03-02T02:40:06;95159.41;;;6.39;100.00
43450;BME280;29041;42.266;23.110;2024-03-02T02:42:53;95171.78;;;6.34;100.00
43450;BME280;29041;42.266;23.110;2024-03-02T02:45:40;95176.22;;;6.48;100.00
43450;BME280;29041;42.266;23.110;2024-03-02T02:48:27;95179.44;;;6.76;100.00
43450;BME280;29041;42.266;23.110;2024-03-02T02:51:14;95170.44;;;6.55;100.00
43450;BME280;29041;42.266;23.110;2024-03-02T02:54:02;95141.16;;;6.23;100.00
43450;BME280;29041;42.266;23.110;2024-03-02T02:56:51;95171.47;;;6.36;100.00
43450;BME280;29041;42.266;23.110;2024-03-02T02:59:38;95173.28;;;6.67;100.00
43450;BME280;29041;42.266;23.110;2024-03-02T03:02:27;95176.13;;;6.71;100.00
43450;BME280;29041;42.266;23.110;2024-03-02T03:05:15;95174.88;;;6.77;100.00
43450;BME280;29041;42.266;23.110;2024-03-02T03:08:02;95173.47;;;7.06;100.00
43450;BME280;29041;42.266;23.110;2024-03-02T03:10:49;95170.44;;;6.63;100.00
43450;BME280;29041;42.266;23.110;2024-03-02T03:13:39;95137.03;;;6.75;100.00
43450;BME280;29041;42.266;23.110;2024-03-02T03:16:27;95166.91;;;6.94;100.00
43450;BME280;29041;42.266;23.110;2024-03-02T03:19:14;95160.59;;;6.73;100.00
43450;BME280;29041;42.266;23.110;2024-03-02T03:22:01;95153.41;;;6.33;100.00
43450;BME280;29041;42.266;23.110;2024-03-02T03:24:50;95165.16;;;6.23;100.00
43450;BME280;29041;42.266;23.110;2024-03-02T03:27:37;95168.78;;;6.27;100.00
43450;BME280;29041;42.266;23.110;2024-03-02T03:30:26;95155.56;;;6.22;100.00
43450;BME280;29041;42.266;23.110;2024-03-02T03:33:13;95162.47;;;6.14;100.00
43450;BME280;29041;42.266;23.110;2024-03-02T03:36:00;95152.19;;;6.39;100.00
43450;BME280;29041;42.266;23.110;2024-03-02T03:38:49;95169.34;;;6.07;100.00
43450;BME280;29041;42.266;23.110;2024-03-02T03:41:36;95140.47;;;6.00;100.00
43450;BME280;29041;42.266;23.110;2024-03-02T03:44:23;95184.94;;;6.31;100.00
43450;BME280;29041;42.266;23.110;2024-03-02T03:47:11;95177.22;;;6.21;100.00
43450;BME280;29041;42.266;23.110;2024-03-02T03:49:59;95170.59;;;6.09;100.00
43450;BME280;29041;42.266;23.110;2024-03-02T03:52:46;95182.19;;;6.05;100.00
43450;BME280;29041;42.266;23.110;2024-03-02T03:55:33;95167.94;;;6.09;100.00
43450;BME280;29041;42.266;23.110;2024-03-02T03:58:20;95173.56;;;6.08;100.00
43450;BME280;29041;42.266;23.110;2024-03-02T04:01:07;95170.78;;;6.22;100.00
43450;BME280;29041;42.266;23.110;2024-03-02T04:03:56;95177.75;;;6.00;100.00
43450;BME280;29041;42.266;23.110;2024-03-02T04:06:45;95177.88;;;6.26;100.00
43450;BME280;29041;42.266;23.110;2024-03-02T04:09:32;95157.00;;;5.97;100.00
43450;BME280;29041;42.266;23.110;2024-03-02T04:12:20;95176.75;;;5.96;100.00
43450;BME280;29041;42.266;23.110;2024-03-02T04:15:07;95158.34;;;5.99;100.00
43450;BME280;29041;42.266;23.110;2024-03-02T04:17:55;95166.75;;;6.33;100.00
43450;BME280;29041;42.266;23.110;2024-03-02T04:20:43;95171.28;;;6.24;100.00
43450;BME280;29041;42.266;23.110;2024-03-02T04:23:30;95157.44;;;6.13;100.00
43450;BME280;29041;42.266;23.110;2024-03-02T04:26:21;95164.97;;;6.19;100.00
43450;BME280;29041;42.266;23.110;2024-03-02T04:29:09;95152.41;;;6.11;100.00
43450;BME280;29041;42.266;23.110;2024-03-02T04:31:56;95169.06;;;6.17;100.00
43450;BME280;29041;42.266;23.110;2024-03-02T04:34:43;95170.47;;;6.23;100.00
43450;BME280;29041;42.266;23.110;2024-03-02T04:37:34;95161.03;;;6.08;100.00
43450;BME280;29041;42.266;23.110;2024-03-02T04:40:21;95176.63;;;6.24;100.00
43450;BME280;29041;42.266;23.110;2024-03-02T04:43:08;95178.63;;;6.18;100.00
43450;BME280;29041;42.266;23.110;2024-03-02T04:45:56;95179.84;;;6.12;100.00
43450;BME280;29041;42.266;23.110;2024-03-02T04:48:43;95174.84;;;6.10;100.00
43450;BME280;29041;42.266;23.110;2024-03-02T04:51:30;95181.25;;;6.09;100.00
43450;BME280;29041;42.266;23.110;2024-03-02T04:54:19;95192.53;;;6.06;100.00
43450;BME280;29041;42.266;23.110;2024-03-02T04:57:06;95180.94;;;6.11;100.00
43450;BME280;29041;42.266;23.110;2024-03-02T04:59:53;95185.25;;;6.29;100.00
43450;BME280;29041;42.266;23.110;2024-03-02T05:02:40;95159.28;;;6.44;100.00
43450;BME280;29041;42.266;23.110;2024-03-02T05:05:28;95187.09;;;6.69;100.00
43450;BME280;29041;42.266;23.110;2024-03-02T05:08:15;95183.19;;;6.75;100.00
43450;BME280;29041;42.266;23.110;2024-03-02T05:11:04;95176.19;;;6.39;100.00
43450;BME280;29041;42.266;23.110;2024-03-02T05:14:05;95205.56;;;6.57;100.00
43450;BME280;29041;42.266;23.110;2024-03-02T05:16:52;95204.53;;;6.75;100.00
43450;BME280;29041;42.266;23.110;2024-03-02T05:19:39;95185.47;;;6.50;100.00
43450;BME280;29041;42.266;23.110;2024-03-02T05:22:27;95193.63;;;6.45;100.00
43450;BME280;29041;42.266;23.110;2024-03-02T05:25:15;95199.44;;;6.47;100.00
43450;BME280;29041;42.266;23.110;2024-03-02T05:28:04;95200.22;;;6.57;100.00
43450;BME280;29041;42.266;23.110;2024-03-02T05:30:51;95207.56;;;6.42;100.00
43450;BME280;29041;42.266;23.110;2024-03-02T05:33:39;95201.69;;;6.23;100.00
43450;BME280;29041;42.266;23.110;2024-03-02T05:36:29;95214.22;;;6.62;100.00
43450;BME280;29041;42.266;23.110;2024-03-02T05:39:18;95214.53;;;6.61;100.00
43450;BME280;29041;42.266;23.110;2024-03-02T05:42:06;95213.53;;;6.39;100.00
43450;BME280;29041;42.266;23.110;2024-03-02T05:44:54;95216.22;;;6.48;100.00
43450;BME280;29041;42.266;23.110;2024-03-02T05:47:43;95213.31;;;6.27;100.00
43450;BME280;29041;42.266;23.110;2024-03-02T05:50:30;95220.31;;;6.54;100.00
43450;BME280;29041;42.266;23.110;2024-03-02T05:53:18;95221.06;;;6.46;100.00
43450;BME280;29041;42.266;23.110;2024-03-02T05:56:06;95229.97;;;6.41;100.00
43450;BME280;29041;42.266;23.110;2024-03-02T05:58:54;95236.72;;;6.39;100.00
43450;BME280;29041;42.266;23.110;2024-03-02T06:01:55;95221.41;;;6.53;100.00
43450;BME280;29041;42.266;23.110;2024-03-02T06:04:42;95211.59;;;6.31;100.00
43450;BME280;29041;42.266;23.110;2024-03-02T06:07:29;95240.47;;;6.38;100.00
43450;BME280;29041;42.266;23.110;2024-03-02T06:10:17;95218.19;;;6.25;100.00
43450;BME280;29041;42.266;23.110;2024-03-02T06:13:04;95214.44;;;6.34;100.00
43450;BME280;29041;42.266;23.110;2024-03-02T06:15:51;95228.28;;;6.45;100.00
43450;BME280;29041;42.266;23.110;2024-03-02T06:18:40;95229.38;;;6.44;100.00
43450;BME280;29041;42.266;23.110;2024-03-02T06:21:27;95220.97;;;6.69;100.00
43450;BME280;29041;42.266;23.110;2024-03-02T06:24:15;95235.13;;;6.69;100.00
43450;BME280;29041;42.266;23.110;2024-03-02T06:27:02;95243.81;;;6.43;100.00
43450;BME280;29041;42.266;23.110;2024-03-02T06:29:50;95231.31;;;6.21;100.00
43450;BME280;29041;42.266;23.110;2024-03-02T06:32:37;95230.28;;;6.31;100.00
43450;BME280;29041;42.266;23.110;2024-03-02T06:35:26;95244.44;;;6.40;100.00
43450;BME280;29041;42.266;23.110;2024-03-02T06:38:13;95241.47;;;6.50;100.00
43450;BME280;29041;42.266;23.110;2024-03-02T06:41:00;95245.88;;;6.55;100.00
43450;BME280;29041;42.266;23.110;2024-03-02T06:43:47;95200.16;;;6.30;100.00
43450;BME280;29041;42.266;23.110;2024-03-02T06:46:34;95246.22;;;6.62;100.00
43450;BME280;29041;42.266;23.110;2024-03-02T06:49:21;95252.06;;;6.73;100.00
43450;BME280;29041;42.266;23.110;2024-03-02T06:52:10;95253.00;;;6.69;100.00
43450;BME280;29041;42.266;23.110;2024-03-02T06:54:57;95258.22;;;6.74;100.00
43450;BME280;29041;42.266;23.110;2024-03-02T06:57:45;95245.78;;;6.69;100.00
43450;BME280;29041;42.266;23.110;2024-03-02T07:00:32;95253.66;;;6.74;100.00
43450;BME280;29041;42.266;23.110;2024-03-02T07:03:19;95258.06;;;6.88;100.00
43450;BME280;29041;42.266;23.110;2024-03-02T07:06:06;95249.75;;;6.80;100.00
43450;BME280;29041;42.266;23.110;2024-03-02T07:08:56;95260.56;;;6.84;100.00
43450;BME280;29041;42.266;23.110;2024-03-02T07:11:43;95260.72;;;6.70;100.00
43450;BME280;29041;42.266;23.110;2024-03-02T07:14:31;95249.22;;;6.70;100.00
43450;BME280;29041;42.266;23.110;2024-03-02T07:17:32;95234.38;;;6.86;100.00
43450;BME280;29041;42.266;23.110;2024-03-02T07:20:19;95264.66;;;6.90;100.00
43450;BME280;29041;42.266;23.110;2024-03-02T07:23:06;95262.91;;;6.77;100.00
43450;BME280;29041;42.266;23.110;2024-03-02T07:25:55;95261.22;;;6.49;100.00
43450;BME280;29041;42.266;23.110;2024-03-02T07:28:43;95251.06;;;6.51;100.00
43450;BME280;29041;42.266;23.110;2024-03-02T07:31:30;95261.97;;;6.73;100.00
43450;BME280;29041;42.266;23.110;2024-03-02T07:34:17;95264.91;;;6.71;100.00
43450;BME280;29041;42.266;23.110;2024-03-02T07:37:05;95270.16;;;6.85;100.00
43450;BME280;29041;42.266;23.110;2024-03-02T07:39:52;95261.97;;;6.73;100.00
43450;BME280;29041;42.266;23.110;2024-03-02T07:42:41;95262.66;;;7.05;100.00
43450;BME280;29041;42.266;23.110;2024-03-02T07:45:28;95268.75;;;6.88;100.00
43450;BME280;29041;42.266;23.110;2024-03-02T07:48:17;95276.38;;;7.21;100.00
43450;BME280;29041;42.266;23.110;2024-03-02T07:51:04;95267.41;;;7.17;100.00
43450;BME280;29041;42.266;23.110;2024-03-02T07:53:52;95280.50;;;6.87;100.00
43450;BME280;29041;42.266;23.110;2024-03-02T07:56:39;95270.31;;;6.89;100.00
43450;BME280;29041;42.266;23.110;2024-03-02T07:59:27;95259.41;;;6.67;100.00
43450;BME280;29041;42.266;23.110;2024-03-02T08:02:15;95282.09;;;6.88;100.00
43450;BME280;29041;42.266;23.110;2024-03-02T08:05:02;95284.19;;;7.08;100.00
43450;BME280;29041;42.266;23.110;2024-03-02T08:07:50;95264.38;;;6.92;100.00
43450;BME280;29041;42.266;23.110;2024-03-02T08:10:38;95267.97;;;6.87;100.00
43450;BME280;29041;42.266;23.110;2024-03-02T08:13:25;95280.41;;;7.09;100.00
43450;BME280;29041;42.266;23.110;2024-03-02T08:16:14;95286.72;;;7.31;100.00
43450;BME280;29041;42.266;23.110;2024-03-02T08:19:01;95293.97;;;7.30;100.00
43450;BME280;29041;42.266;23.110;2024-03-02T08:21:49;95288.63;;;7.30;100.00
43450;BME280;29041;42.266;23.110;2024-03-02T08:24:36;95282.00;;;7.19;100.00
43450;BME280;29041;42.266;23.110;2024-03-02T08:27:24;95284.25;;;7.43;100.00
43450;BME280;29041;42.266;23.110;2024-03-02T08:30:12;95288.00;;;7.60;100.00
43450;BME280;29041;42.266;23.110;2024-03-02T08:33:32;95288.47;;;7.71;100.00
43450;BME280;29041;42.266;23.110;2024-03-02T08:36:19;95286.91;;;8.05;100.00
43450;BME280;29041;42.266;23.110;2024-03-02T08:39:07;95285.03;;;7.88;100.00
43450;BME280;29041;42.266;23.110;2024-03-02T08:42:00;95283.28;;;8.09;100.00
43450;BME280;29041;42.266;23.110;2024-03-02T08:44:48;95303.91;;;8.00;100.00
43450;BME280;29041;42.266;23.110;2024-03-02T08:47:35;95295.25;;;7.68;100.00
43450;BME280;29041;42.266;23.110;2024-03-02T08:50:29;95306.25;;;7.75;100.00
43450;BME280;29041;42.266;23.110;2024-03-02T08:53:16;95310.66;;;7.71;100.00
43450;BME280;29041;42.266;23.110;2024-03-02T08:56:04;95306.13;;;7.81;100.00
43450;BME280;29041;42.266;23.110;2024-03-02T08:58:52;95304.53;;;7.80;100.00
43450;BME280;29041;42.266;23.110;2024-03-02T09:01:39;95309.81;;;8.23;100.00
43450;BME280;29041;42.266;23.110;2024-03-02T09:04:27;95311.09;;;8.17;100.00
43450;BME280;29041;42.266;23.110;2024-03-02T09:07:16;95308.28;;;8.22;100.00
43450;BME280;29041;42.266;23.110;2024-03-02T09:10:04;95300.22;;;8.31;100.00
43450;BME280;29041;42.266;23.110;2024-03-02T09:12:51;95312.06;;;8.21;100.00
43450;BME280;29041;42.266;23.110;2024-03-02T09:15:39;95328.84;;;8.48;100.00
43450;BME280;29041;42.266;23.110;2024-03-02T09:18:26;95314.72;;;8.48;100.00
43450;BME280;29041;42.266;23.110;2024-03-02T09:21:13;95322.84;;;8.60;100.00
43450;BME280;29041;42.266;23.110;2024-03-02T09:24:02;95324.19;;;8.19;100.00
43450;BME280;29041;42.266;23.110;2024-03-02T09:26:50;95318.81;;;8.19;100.00
43450;BME280;29041;42.266;23.110;2024-03-02T09:29:37;95320.06;;;8.30;100.00
43450;BME280;29041;42.266;23.110;2024-03-02T09:32:24;95325.41;;;8.30;100.00
43450;BME280;29041;42.266;23.110;2024-03-02T09:35:11;95324.91;;;8.46;100.00
43450;BME280;29041;42.266;23.110;2024-03-02T09:37:58;95320.84;;;8.39;100.00
43450;BME280;29041;42.266;23.110;2024-03-02T09:40:47;95321.75;;;8.44;100.00
43450;BME280;29041;42.266;23.110;2024-03-02T09:43:34;95327.63;;;8.93;100.00
43450;BME280;29041;42.266;23.110;2024-03-02T09:46:21;95324.44;;;9.00;100.00
43450;BME280;29041;42.266;23.110;2024-03-02T09:49:09;95317.41;;;8.86;100.00
43450;BME280;29041;42.266;23.110;2024-03-02T09:51:56;95319.84;;;8.70;100.00
43450;BME280;29041;42.266;23.110;2024-03-02T09:54:44;95316.63;;;8.86;100.00
43450;BME280;29041;42.266;23.110;2024-03-02T09:57:35;95312.28;;;9.32;100.00
43450;BME280;29041;42.266;23.110;2024-03-02T10:00:22;95321.41;;;9.61;100.00
43450;BME280;29041;42.266;23.110;2024-03-02T10:03:12;95313.31;;;9.19;100.00
43450;BME280;29041;42.266;23.110;2024-03-02T10:06:20;95319.97;;;8.74;100.00
43450;BME280;29041;42.266;23.110;2024-03-02T10:09:08;95298.88;;;8.72;100.00
43450;BME280;29041;42.266;23.110;2024-03-02T10:12:03;95320.84;;;9.26;100.00
43450;BME280;29041;42.266;23.110;2024-03-02T10:15:02;95325.22;;;9.00;100.00
43450;BME280;29041;42.266;23.110;2024-03-02T10:17:50;95312.94;;;9.29;100.00
43450;BME280;29041;42.266;23.110;2024-03-02T10:20:37;95300.66;;;9.28;100.00
43450;BME280;29041;42.266;23.110;2024-03-02T10:23:24;95317.25;;;9.94;100.00
43450;BME280;29041;42.266;23.110;2024-03-02T10:26:16;95317.28;;;9.43;100.00
43450;BME280;29041;42.266;23.110;2024-03-02T10:29:04;95306.50;;;9.73;100.00
43450;BME280;29041;42.266;23.110;2024-03-02T10:31:52;95307.09;;;9.57;100.00
43450;BME280;29041;42.266;23.110;2024-03-02T10:34:42;95309.31;;;9.55;100.00
43450;BME280;29041;42.266;23.110;2024-03-02T10:37:30;95306.69;;;9.46;100.00
43450;BME280;29041;42.266;23.110;2024-03-02T10:40:21;95306.56;;;9.43;100.00
43450;BME280;29041;42.266;23.110;2024-03-02T10:43:09;95309.38;;;9.46;100.00
43450;BME280;29041;42.266;23.110;2024-03-02T10:45:57;95295.47;;;9.53;100.00
43450;BME280;29041;42.266;23.110;2024-03-02T10:48:46;95297.53;;;9.68;100.00
43450;BME280;29041;42.266;23.110;2024-03-02T10:51:35;95283.53;;;9.84;100.00
43450;BME280;29041;42.266;23.110;2024-03-02T10:54:23;95305.78;;;9.63;100.00
43450;BME280;29041;42.266;23.110;2024-03-02T10:57:16;95290.56;;;9.55;100.00
43450;BME280;29041;42.266;23.110;2024-03-02T11:00:10;95298.72;;;9.59;100.00
43450;BME280;29041;42.266;23.110;2024-03-02T11:03:05;95302.69;;;10.16;100.00
43450;BME280;29041;42.266;23.110;2024-03-02T11:05:57;95303.34;;;10.46;100.00
43450;BME280;29041;42.266;23.110;2024-03-02T11:08:48;95291.09;;;10.24;100.00
43450;BME280;29041;42.266;23.110;2024-03-02T11:11:40;95295.81;;;10.06;100.00
43450;BME280;29041;42.266;23.110;2024-03-02T11:14:30;95291.22;;;10.74;100.00
43450;BME280;29041;42.266;23.110;2024-03-02T11:17:17;95291.00;;;10.33;100.00
43450;BME280;29041;42.266;23.110;2024-03-02T11:20:06;95294.53;;;10.46;100.00
43450;BME280;29041;42.266;23.110;2024-03-02T11:23:04;95283.13;;;10.15;100.00
43450;BME280;29041;42.266;23.110;2024-03-02T11:25:51;95293.34;;;10.35;100.00
43450;BME280;29041;42.266;23.110;2024-03-02T11:28:38;95295.03;;;10.85;100.00
43450;BME280;29041;42.266;23.110;2024-03-02T11:31:59;95284.72;;;10.62;100.00
43450;BME280;29041;42.266;23.110;2024-03-02T11:34:48;95289.66;;;10.85;100.00
43450;BME280;29041;42.266;23.110;2024-03-02T11:37:36;95287.06;;;10.76;100.00
43450;BME280;29041;42.266;23.110;2024-03-02T11:40:31;95287.88;;;10.77;100.00
43450;BME280;29041;42.266;23.110;2024-03-02T11:43:19;95272.88;;;10.76;100.00
43450;BME280;29041;42.266;23.110;2024-03-02T11:46:07;95282.25;;;11.19;100.00
43450;BME280;29041;42.266;23.110;2024-03-02T11:48:54;95291.47;;;11.06;100.00
43450;BME280;29041;42.266;23.110;2024-03-02T11:51:53;95288.09;;;10.72;100.00
43450;BME280;29041;42.266;23.110;2024-03-02T11:54:41;95275.84;;;10.50;100.00
43450;BME280;29041;42.266;23.110;2024-03-02T11:57:34;95272.53;;;10.31;100.00
43450;BME280;29041;42.266;23.110;2024-03-02T12:00:21;95273.75;;;10.22;100.00
43450;BME280;29041;42.266;23.110;2024-03-02T12:03:10;95275.63;;;10.21;100.00
43450;BME280;29041;42.266;23.110;2024-03-02T12:05:59;95275.44;;;10.26;100.00
43450;BME280;29041;42.266;23.110;2024-03-02T12:08:46;95262.53;;;10.07;100.00
43450;BME280;29041;42.266;23.110;2024-03-02T12:11:38;95266.13;;;10.11;100.00
43450;BME280;29041;42.266;23.110;2024-03-02T12:14:27;95265.00;;;10.58;100.00
43450;BME280;29041;42.266;23.110;2024-03-02T12:17:14;95262.03;;;10.26;100.00
43450;BME280;29041;42.266;23.110;2024-03-02T12:20:02;95261.91;;;10.56;100.00
43450;BME280;29041;42.266;23.110;2024-03-02T12:22:51;95267.09;;;10.40;100.00
43450;BME280;29041;42.266;23.110;2024-03-02T12:25:39;95269.41;;;10.29;100.00
43450;BME280;29041;42.266;23.110;2024-03-02T12:28:26;95262.13;;;10.63;100.00
43450;BME280;29041;42.266;23.110;2024-03-02T12:31:15;95263.34;;;10.91;100.00
43450;BME280;29041;42.266;23.110;2024-03-02T12:34:02;95254.59;;;11.31;100.00
43450;BME280;29041;42.266;23.110;2024-03-02T12:36:50;95259.47;;;11.01;100.00
43450;BME280;29041;42.266;23.110;2024-03-02T12:39:38;95248.69;;;10.88;100.00
43450;BME280;29041;42.266;23.110;2024-03-02T12:42:25;95250.16;;;10.98;100.00
43450;BME280;29041;42.266;23.110;2024-03-02T12:45:13;95248.03;;;11.04;100.00
43450;BME280;29041;42.266;23.110;2024-03-02T12:48:02;95242.09;;;11.10;100.00
43450;BME280;29041;42.266;23.110;2024-03-02T12:50:51;95242.22;;;11.14;100.00
43450;BME280;29041;42.266;23.110;2024-03-02T12:53:38;95250.50;;;10.84;100.00
43450;BME280;29041;42.266;23.110;2024-03-02T12:56:26;95253.63;;;10.61;100.00
43450;BME280;29041;42.266;23.110;2024-03-02T12:59:17;95249.94;;;10.66;100.00
43450;BME280;29041;42.266;23.110;2024-03-02T13:02:05;95254.97;;;10.80;100.00
43450;BME280;29041;42.266;23.110;2024-03-02T13:04:54;95244.22;;;11.05;100.00
43450;BME280;29041;42.266;23.110;2024-03-02T13:07:41;95259.66;;;10.83;100.00
43450;BME280;29041;42.266;23.110;2024-03-02T13:10:30;95254.31;;;11.08;100.00
43450;BME280;29041;42.266;23.110;2024-03-02T13:13:18;95257.88;;;10.75;100.00
43450;BME280;29041;42.266;23.110;2024-03-02T13:16:09;95236.63;;;10.57;100.00
43450;BME280;29041;42.266;23.110;2024-03-02T13:18:56;95261.03;;;11.02;100.00
43450;BME280;29041;42.266;23.110;2024-03-02T13:21:45;95247.53;;;11.39;100.00
43450;BME280;29041;42.266;23.110;2024-03-02T13:24:32;95252.47;;;11.37;100.00
43450;BME280;29041;42.266;23.110;2024-03-02T13:27:19;95230.75;;;11.17;100.00
43450;BME280;29041;42.266;23.110;2024-03-02T13:30:07;95247.22;;;11.16;100.00
43450;BME280;29041;42.266;23.110;2024-03-02T13:32:55;95249.03;;;11.65;100.00
43450;BME280;29041;42.266;23.110;2024-03-02T13:35:42;95251.25;;;11.34;100.00
43450;BME280;29041;42.266;23.110;2024-03-02T13:38:30;95273.75;;;11.17;100.00
43450;BME280;29041;42.266;23.110;2024-03-02T13:41:17;95261.16;;;11.58;100.00
43450;BME280;29041;42.266;23.110;2024-03-02T13:44:06;95268.00;;;11.43;100.00
43450;BME280;29041;42.266;23.110;2024-03-02T13:46:53;95261.56;;;11.07;100.00
43450;BME280;29041;42.266;23.110;2024-03-02T13:49:40;95260.69;;;11.03;100.00
43450;BME280;29041;42.266;23.110;2024-03-02T13:52:29;95262.69;;;11.19;100.00
43450;BME280;29041;42.266;23.110;2024-03-02T13:55:18;95257.63;;;11.17;100.00
43450;BME280;29041;42.266;23.110;2024-03-02T13:58:06;95242.94;;;11.39;100.00
43450;BME280;29041;42.266;23.110;2024-03-02T14:00:53;95253.28;;;11.25;100.00
43450;BME280;29041;42.266;23.110;2024-03-02T14:03:42;95262.16;;;11.54;100.00
43450;BME280;29041;42.266;23.110;2024-03-02T14:06:29;95265.41;;;11.59;100.00
43450;BME280;29041;42.266;23.110;2024-03-02T14:09:16;95267.38;;;11.75;100.00
43450;BME280;29041;42.266;23.110;2024-03-02T14:12:07;95269.44;;;11.66;100.00
43450;BME280;29041;42.266;23.110;2024-03-02T14:14:56;95267.44;;;11.50;100.00
43450;BME280;29041;42.266;23.110;2024-03-02T14:17:44;95269.38;;;11.78;100.00
43450;BME280;29041;42.266;23.110;2024-03-02T14:20:31;95275.75;;;11.86;100.00
43450;BME280;29041;42.266;23.110;2024-03-02T14:23:18;95271.47;;;12.26;100.00
43450;BME280;29041;42.266;23.110;2024-03-02T14:26:06;95279.34;;;12.18;100.00
43450;BME280;29041;42.266;23.110;2024-03-02T14:28:54;95259.53;;;11.70;100.00
43450;BME280;29041;42.266;23.110;2024-03-02T14:31:42;95279.16;;;11.70;100.00
43450;BME280;29041;42.266;23.110;2024-03-02T14:34:29;95263.88;;;11.46;100.00
43450;BME280;29041;42.266;23.110;2024-03-02T14:37:16;95267.03;;;11.77;100.00
43450;BME280;29041;42.266;23.110;2024-03-02T14:40:04;95285.19;;;11.80;100.00